createdAt,value
2023-02-13T00:00:48.753Z,100.00
2023-02-13T00:03:16.030Z,100.00
2023-02-13T00:05:43.349Z,100.00
2023-02-13T00:08:10.582Z,100.00
2023-02-13T00:10:38.014Z,100.00
2023-02-13T00:13:05.248Z,100.00
2023-02-13T00:15:32.701Z,100.00
2023-02-13T00:18:00.154Z,100.00
2023-02-13T00:20:27.393Z,100.00
2023-02-13T00:22:54.649Z,100.00
2023-02-13T00:25:21.912Z,100.00
2023-02-13T00:27:52.089Z,100.00
2023-02-13T00:30:20.027Z,100.00
2023-02-13T00:32:47.160Z,100.00
2023-02-13T00:35:14.506Z,100.00
2023-02-13T00:37:41.684Z,100.00
2023-02-13T00:40:09.587Z,100.00
2023-02-13T00:42:36.813Z,100.00
2023-02-13T00:45:04.327Z,100.00
2023-02-13T00:47:31.604Z,100.00
2023-02-13T00:49:58.789Z,100.00
2023-02-13T00:52:26.126Z,100.00
2023-02-13T00:54:53.325Z,100.00
2023-02-13T00:57:20.504Z,100.00
2023-02-13T00:59:47.733Z,100.00
2023-02-13T01:02:14.945Z,100.00
2023-02-13T01:04:42.143Z,100.00
2023-02-13T01:07:09.439Z,100.00
2023-02-13T01:09:36.623Z,100.00
2023-02-13T01:12:03.943Z,100.00
2023-02-13T01:14:31.282Z,100.00
2023-02-13T01:16:58.471Z,100.00
2023-02-13T01:19:25.919Z,100.00
2023-02-13T01:21:53.222Z,100.00
2023-02-13T01:24:20.367Z,100.00
2023-02-13T01:26:47.552Z,100.00
2023-02-13T01:29:15.127Z,100.00
2023-02-13T01:31:42.416Z,100.00
2023-02-13T01:34:09.709Z,100.00
2023-02-13T01:36:36.853Z,100.00
2023-02-13T01:39:04.257Z,100.00
2023-02-13T01:41:31.632Z,100.00
2023-02-13T01:44:01.544Z,100.00
2023-02-13T01:46:44.051Z,100.00
2023-02-13T01:49:23.420Z,100.00
2023-02-13T01:51:56.242Z,100.00
2023-02-13T01:54:31.161Z,100.00
2023-02-13T01:57:11.255Z,100.00
2023-02-13T01:59:51.195Z,100.00
2023-02-13T02:02:21.104Z,100.00
2023-02-13T02:04:50.344Z,100.00
2023-02-13T02:07:30.981Z,100.00
2023-02-13T02:10:14.204Z,100.00
2023-02-13T02:12:54.929Z,100.00
2023-02-13T02:15:22.216Z,100.00
2023-02-13T02:17:49.633Z,100.00
2023-02-13T02:20:50.706Z,100.00
2023-02-13T02:23:44.412Z,100.00
2023-02-13T02:26:30.138Z,100.00
2023-02-13T02:29:25.274Z,100.00
2023-02-13T02:32:16.617Z,100.00
2023-02-13T02:35:23.813Z,100.00
2023-02-13T02:38:17.913Z,100.00
2023-02-13T02:41:38.357Z,100.00
2023-02-13T02:44:18.072Z,100.00
2023-02-13T02:47:24.834Z,100.00
2023-02-13T02:50:15.030Z,100.00
2023-02-13T02:53:26.082Z,100.00
2023-02-13T02:56:30.683Z,100.00
2023-02-13T02:59:26.028Z,100.00
2023-02-13T03:02:15.169Z,100.00
2023-02-13T03:05:10.768Z,100.00
2023-02-13T03:07:38.176Z,100.00
2023-02-13T03:10:28.928Z,100.00
2023-02-13T03:13:22.418Z,100.00
2023-02-13T03:16:13.356Z,100.00
2023-02-13T03:19:04.883Z,100.00
2023-02-13T03:22:23.723Z,100.00
2023-02-13T03:25:36.072Z,100.00
2023-02-13T03:28:57.163Z,100.00
2023-02-13T03:31:49.584Z,100.00
2023-02-13T03:34:47.552Z,100.00
2023-02-13T03:37:43.723Z,100.00
2023-02-13T03:40:21.984Z,100.00
2023-02-13T03:43:15.118Z,100.00
2023-02-13T03:45:53.935Z,100.00
2023-02-13T03:48:57.305Z,100.00
2023-02-13T03:51:33.791Z,100.00
2023-02-13T03:54:15.979Z,100.00
2023-02-13T03:57:03.892Z,100.00
2023-02-13T03:59:36.586Z,100.00
2023-02-13T04:02:16.977Z,100.00
2023-02-13T04:05:00.735Z,100.00
2023-02-13T04:07:32.037Z,100.00
2023-02-13T04:10:10.536Z,100.00
2023-02-13T04:12:59.193Z,100.00
2023-02-13T04:15:50.615Z,100.00
2023-02-13T04:18:32.311Z,100.00
2023-02-13T04:21:07.665Z,100.00
2023-02-13T04:23:36.902Z,100.00
2023-02-13T04:26:14.159Z,100.00
2023-02-13T04:28:41.385Z,100.00
2023-02-13T04:31:08.706Z,100.00
2023-02-13T04:33:36.042Z,100.00
2023-02-13T04:36:03.413Z,100.00
2023-02-13T04:38:30.662Z,100.00
2023-02-13T04:40:58.087Z,100.00
2023-02-13T04:43:25.579Z,100.00
2023-02-13T04:45:53.026Z,100.00
2023-02-13T04:48:20.246Z,100.00
2023-02-13T04:50:48.142Z,100.00
2023-02-13T04:53:15.389Z,100.00
2023-02-13T04:55:42.703Z,100.00
2023-02-13T04:58:09.934Z,100.00
2023-02-13T05:00:37.794Z,100.00
2023-02-13T05:03:07.713Z,100.00
2023-02-13T05:05:35.909Z,100.00
2023-02-13T05:08:03.527Z,100.00
2023-02-13T05:10:31.336Z,100.00
2023-02-13T05:12:59.160Z,100.00
2023-02-13T05:15:26.461Z,100.00
2023-02-13T05:17:53.923Z,100.00
2023-02-13T05:20:21.407Z,100.00
2023-02-13T05:23:10.125Z,100.00
2023-02-13T05:25:40.858Z,100.00
2023-02-13T05:28:27.474Z,100.00
2023-02-13T05:30:54.767Z,100.00
2023-02-13T05:33:22.085Z,100.00
2023-02-13T05:35:49.339Z,100.00
2023-02-13T05:38:16.698Z,100.00
2023-02-13T05:40:43.946Z,100.00
2023-02-13T05:43:11.278Z,100.00
2023-02-13T05:45:38.521Z,100.00
2023-02-13T05:48:06.070Z,100.00
2023-02-13T05:50:33.343Z,100.00
2023-02-13T05:53:00.612Z,100.00
2023-02-13T05:55:27.881Z,100.00
2023-02-13T05:57:58.678Z,100.00
2023-02-13T06:00:26.018Z,100.00
2023-02-13T06:02:53.344Z,100.00
2023-02-13T06:05:20.602Z,100.00
2023-02-13T06:07:47.824Z,100.00
2023-02-13T06:10:15.101Z,100.00
2023-02-13T06:12:43.955Z,100.00
2023-02-13T06:15:11.189Z,100.00
2023-02-13T06:17:38.513Z,100.00
2023-02-13T06:20:07.363Z,100.00
2023-02-13T06:22:34.644Z,100.00
2023-02-13T06:25:01.922Z,100.00
2023-02-13T06:27:29.261Z,100.00
2023-02-13T06:29:56.434Z,100.00
2023-02-13T06:32:23.725Z,100.00
2023-02-13T06:34:50.984Z,100.00
2023-02-13T06:37:18.169Z,100.00
2023-02-13T06:39:45.489Z,100.00
2023-02-13T06:42:12.756Z,100.00
2023-02-13T06:44:39.986Z,100.00
2023-02-13T06:47:07.329Z,100.00
2023-02-13T06:49:34.492Z,100.00
2023-02-13T06:52:01.759Z,100.00
2023-02-13T06:54:46.019Z,100.00
2023-02-13T06:57:15.271Z,100.00
2023-02-13T06:59:43.487Z,100.00
2023-02-13T07:02:12.124Z,100.00
2023-02-13T07:04:39.500Z,100.00
2023-02-13T07:07:06.909Z,100.00
2023-02-13T07:09:34.350Z,100.00
2023-02-13T07:12:05.760Z,100.00
2023-02-13T07:14:33.097Z,100.00
2023-02-13T07:17:00.349Z,100.00
2023-02-13T07:19:27.685Z,100.00
2023-02-13T07:21:55.022Z,100.00
2023-02-13T07:24:22.166Z,100.00
2023-02-13T07:26:49.336Z,100.00
2023-02-13T07:29:16.603Z,100.00
2023-02-13T07:31:43.795Z,100.00
2023-02-13T07:34:11.148Z,100.00
2023-02-13T07:36:38.337Z,100.00
2023-02-13T07:39:05.513Z,100.00
2023-02-13T07:41:32.703Z,100.00
2023-02-13T07:44:00.162Z,100.00
2023-02-13T07:46:27.441Z,100.00
2023-02-13T07:48:54.714Z,100.00
2023-02-13T07:51:25.397Z,100.00
2023-02-13T07:53:52.766Z,100.00
2023-02-13T07:56:20.102Z,100.00
2023-02-13T07:58:47.301Z,100.00
2023-02-13T08:01:17.060Z,100.00
2023-02-13T08:03:47.652Z,100.00
2023-02-13T08:06:14.846Z,100.00
2023-02-13T08:08:42.101Z,100.00
2023-02-13T08:11:50.882Z,100.00
2023-02-13T08:14:18.239Z,100.00
2023-02-13T08:16:45.518Z,100.00
2023-02-13T08:19:12.852Z,100.00
2023-02-13T08:21:40.726Z,100.00
2023-02-13T08:24:08.718Z,100.00
2023-02-13T08:26:36.136Z,100.00
2023-02-13T08:29:04.232Z,100.00
2023-02-13T08:31:31.547Z,100.00
2023-02-13T08:33:58.960Z,100.00
2023-02-13T08:36:26.233Z,100.00
2023-02-13T08:38:53.531Z,100.00
2023-02-13T08:41:23.859Z,100.00
2023-02-13T08:43:51.442Z,100.00
2023-02-13T08:46:19.130Z,100.00
2023-02-13T08:48:46.407Z,100.00
2023-02-13T08:51:14.887Z,100.00
2023-02-13T08:53:42.631Z,100.00
2023-02-13T08:56:10.499Z,100.00
2023-02-13T08:58:38.105Z,100.00
2023-02-13T09:01:07.681Z,100.00
2023-02-13T09:03:36.210Z,100.00
2023-02-13T09:06:04.065Z,100.00
2023-02-13T09:08:31.488Z,100.00
2023-02-13T09:11:01.440Z,100.00
2023-02-13T09:13:37.120Z,100.00
2023-02-13T09:16:07.714Z,74.06
2023-02-13T09:18:35.543Z,73.26
2023-02-13T09:21:09.528Z,63.20
2023-02-13T09:23:40.250Z,64.72
2023-02-13T09:26:15.265Z,61.93
2023-02-13T09:28:43.288Z,63.68
2023-02-13T09:31:18.213Z,68.64
2023-02-13T09:33:48.070Z,68.37
2023-02-13T09:36:20.117Z,67.43
2023-02-13T09:38:56.817Z,67.04
2023-02-13T09:41:29.367Z,66.06
2023-02-13T09:44:33.235Z,70.57
2023-02-13T09:47:34.457Z,70.01
2023-02-13T09:50:07.432Z,75.34
2023-02-13T09:52:37.698Z,74.76
2023-02-13T09:55:30.129Z,78.11
2023-02-13T09:58:20.786Z,77.20
2023-02-13T10:00:57.922Z,80.43
2023-02-13T10:04:26.092Z,84.80
2023-02-13T10:07:27.299Z,85.70
2023-02-13T10:10:20.110Z,83.92
2023-02-13T10:13:11.158Z,82.62
2023-02-13T10:16:09.119Z,78.67
2023-02-13T10:19:16.554Z,77.96
2023-02-13T10:21:58.177Z,82.97
2023-02-13T10:24:39.753Z,85.84
2023-02-13T10:27:39.074Z,86.93
2023-02-13T10:30:31.958Z,85.89
2023-02-13T10:33:20.782Z,93.35
2023-02-13T10:35:56.756Z,99.63
2023-02-13T10:38:25.148Z,100.00
2023-02-13T10:41:30.227Z,100.00
2023-02-13T10:44:37.157Z,100.00
2023-02-13T10:47:31.133Z,100.00
2023-02-13T10:50:46.066Z,100.00
2023-02-13T10:53:23.714Z,100.00
2023-02-13T10:56:08.907Z,100.00
2023-02-13T10:59:06.676Z,100.00
2023-02-13T11:02:08.804Z,100.00
2023-02-13T11:04:36.079Z,100.00
2023-02-13T11:07:12.867Z,100.00
2023-02-13T11:09:44.264Z,100.00
2023-02-13T11:12:28.681Z,100.00
2023-02-13T11:15:03.270Z,100.00
2023-02-13T11:17:36.614Z,100.00
2023-02-13T11:20:25.261Z,100.00
2023-02-13T11:22:52.839Z,100.00
2023-02-13T11:25:31.623Z,100.00
2023-02-13T11:28:18.004Z,100.00
2023-02-13T11:30:45.299Z,100.00
2023-02-13T11:33:18.377Z,100.00
2023-02-13T11:35:49.149Z,100.00
2023-02-13T11:38:16.229Z,100.00
2023-02-13T11:41:05.373Z,100.00
2023-02-13T11:43:45.066Z,100.00
2023-02-13T11:46:26.744Z,100.00
2023-02-13T11:49:13.675Z,100.00
2023-02-13T11:51:56.305Z,100.00
2023-02-13T11:54:45.865Z,100.00
2023-02-13T11:57:37.258Z,100.00
2023-02-13T12:00:28.849Z,100.00
2023-02-13T12:02:56.145Z,100.00
2023-02-13T12:05:28.423Z,100.00
2023-02-13T12:08:02.193Z,100.00
2023-02-13T12:10:34.063Z,100.00
2023-02-13T12:13:31.618Z,100.00
2023-02-13T12:16:41.201Z,100.00
2023-02-13T12:19:17.134Z,100.00
2023-02-13T12:22:40.092Z,100.00
2023-02-13T12:26:30.960Z,100.00
2023-02-13T12:29:35.010Z,99.71
2023-02-13T12:32:17.349Z,100.00
2023-02-13T12:34:59.140Z,100.00
2023-02-13T12:37:47.118Z,100.00
2023-02-13T12:40:38.718Z,100.00
2023-02-13T12:43:23.610Z,100.00
2023-02-13T12:46:14.984Z,100.00
2023-02-13T12:49:24.349Z,100.00
2023-02-13T12:52:09.385Z,100.00
2023-02-13T12:55:03.471Z,100.00
2023-02-13T12:58:23.097Z,100.00
2023-02-13T13:01:17.684Z,100.00
2023-02-13T13:04:17.016Z,100.00
2023-02-13T13:06:58.972Z,100.00
2023-02-13T13:09:31.806Z,100.00
2023-02-13T13:12:49.251Z,100.00
2023-02-13T13:15:57.525Z,100.00
2023-02-13T13:19:06.342Z,100.00
2023-02-13T13:22:25.298Z,100.00
2023-02-13T13:25:14.930Z,100.00
2023-02-13T13:27:51.265Z,100.00
2023-02-13T13:30:35.367Z,100.00
2023-02-13T13:33:24.315Z,100.00
2023-02-13T13:36:33.971Z,100.00
2023-02-13T13:39:21.714Z,100.00
2023-02-13T13:42:14.385Z,100.00
2023-02-13T13:45:15.232Z,100.00
2023-02-13T13:48:00.670Z,100.00
2023-02-13T13:50:32.927Z,100.00
2023-02-13T13:53:19.430Z,100.00
2023-02-13T13:55:52.915Z,100.00
2023-02-13T13:58:34.439Z,100.00
2023-02-13T14:01:29.733Z,100.00
2023-02-13T14:04:23.887Z,100.00
2023-02-13T14:06:51.045Z,100.00
2023-02-13T14:09:27.457Z,100.00
2023-02-13T14:11:59.536Z,100.00
2023-02-13T14:14:32.820Z,100.00
2023-02-13T14:17:02.199Z,100.00
2023-02-13T14:19:41.128Z,100.00
2023-02-13T14:22:22.502Z,100.00
2023-02-13T14:25:25.002Z,100.00
2023-02-13T14:28:04.852Z,100.00
2023-02-13T14:30:36.821Z,100.00
2023-02-13T14:33:08.683Z,100.00
2023-02-13T14:35:38.341Z,100.00
2023-02-13T14:38:20.518Z,100.00
2023-02-13T14:40:54.319Z,100.00
2023-02-13T14:43:39.545Z,100.00
2023-02-13T14:46:32.258Z,100.00
2023-02-13T14:49:11.874Z,100.00
2023-02-13T14:51:46.118Z,100.00
2023-02-13T14:54:21.827Z,100.00
2023-02-13T14:56:52.329Z,100.00
2023-02-13T14:59:35.237Z,100.00
2023-02-13T15:02:38.028Z,100.00
2023-02-13T15:05:16.434Z,100.00
2023-02-13T15:07:50.870Z,100.00
2023-02-13T15:10:50.076Z,100.00
2023-02-13T15:13:33.256Z,100.00
2023-02-13T15:16:10.235Z,100.00
2023-02-13T15:18:52.689Z,100.00
2023-02-13T15:21:26.581Z,100.00
2023-02-13T15:23:56.938Z,100.00
2023-02-13T15:26:28.622Z,100.00
2023-02-13T15:29:25.951Z,100.00
2023-02-13T15:31:54.388Z,100.00
2023-02-13T15:34:34.469Z,100.00
2023-02-13T15:37:03.038Z,100.00
2023-02-13T15:39:32.658Z,100.00
2023-02-13T15:42:03.160Z,100.00
2023-02-13T15:44:37.610Z,100.00
2023-02-13T15:47:41.189Z,100.00
2023-02-13T15:50:35.337Z,100.00
2023-02-13T15:53:15.263Z,100.00
2023-02-13T15:55:42.701Z,100.00
2023-02-13T15:58:14.402Z,100.00
2023-02-13T16:00:43.427Z,100.00
2023-02-13T16:03:17.850Z,100.00
2023-02-13T16:05:47.145Z,100.00
2023-02-13T16:08:38.303Z,100.00
2023-02-13T16:11:17.365Z,100.00
2023-02-13T16:14:10.785Z,100.00
2023-02-13T16:16:59.059Z,100.00
2023-02-13T16:19:52.930Z,100.00
2023-02-13T16:22:28.984Z,100.00
2023-02-13T16:25:17.625Z,100.00
2023-02-13T16:27:55.702Z,100.00
2023-02-13T16:30:33.843Z,100.00
2023-02-13T16:33:16.764Z,100.00
2023-02-13T16:36:00.123Z,100.00
2023-02-13T16:38:49.494Z,100.00
2023-02-13T16:41:19.728Z,100.00
2023-02-13T16:43:49.284Z,100.00
2023-02-13T16:46:22.131Z,100.00
2023-02-13T16:49:01.665Z,100.00
2023-02-13T16:51:39.894Z,100.00
2023-02-13T16:54:57.222Z,100.00
2023-02-13T16:57:34.807Z,100.00
2023-02-13T17:00:18.770Z,100.00
2023-02-13T17:02:49.276Z,100.00
2023-02-13T17:05:24.090Z,100.00
2023-02-13T17:07:57.108Z,100.00
2023-02-13T17:10:36.729Z,100.00
2023-02-13T17:13:12.651Z,100.00
2023-02-13T17:15:48.467Z,100.00
2023-02-13T17:18:15.882Z,100.00
2023-02-13T17:20:45.287Z,100.00
2023-02-13T17:23:23.195Z,100.00
2023-02-13T17:25:53.706Z,100.00
2023-02-13T17:28:26.871Z,100.00
2023-02-13T17:30:58.020Z,100.00
2023-02-13T17:33:32.257Z,100.00
2023-02-13T17:35:59.447Z,100.00
2023-02-13T17:38:26.927Z,100.00
2023-02-13T17:40:54.179Z,100.00
2023-02-13T17:43:21.881Z,100.00
2023-02-13T17:45:50.105Z,100.00
2023-02-13T17:48:17.724Z,100.00
2023-02-13T17:50:45.039Z,100.00
2023-02-13T17:53:24.068Z,100.00
2023-02-13T17:55:52.088Z,100.00
2023-02-13T17:58:19.424Z,100.00
2023-02-13T18:00:46.943Z,100.00
2023-02-13T18:03:14.395Z,100.00
2023-02-13T18:05:42.151Z,100.00
2023-02-13T18:08:09.600Z,100.00
2023-02-13T18:10:37.921Z,100.00
2023-02-13T18:13:05.410Z,100.00
2023-02-13T18:15:44.172Z,100.00
2023-02-13T18:18:15.161Z,100.00
2023-02-13T18:20:43.575Z,100.00
2023-02-13T18:23:11.062Z,100.00
2023-02-13T18:25:38.312Z,100.00
2023-02-13T18:28:05.584Z,100.00
2023-02-13T18:30:33.034Z,100.00
2023-02-13T18:33:04.913Z,100.00
2023-02-13T18:35:33.477Z,100.00
2023-02-13T18:38:00.786Z,100.00
2023-02-13T18:40:28.140Z,100.00
2023-02-13T18:42:55.554Z,100.00
2023-02-13T18:45:22.779Z,100.00
2023-02-13T18:47:50.127Z,100.00
2023-02-13T18:50:17.568Z,100.00
2023-02-13T18:52:45.187Z,100.00
2023-02-13T18:55:12.521Z,100.00
2023-02-13T18:57:43.464Z,100.00
2023-02-13T19:00:14.021Z,100.00
2023-02-13T19:02:41.238Z,100.00
2023-02-13T19:05:08.919Z,100.00
2023-02-13T19:07:36.993Z,100.00
2023-02-13T19:10:04.805Z,100.00
2023-02-13T19:12:32.265Z,100.00
2023-02-13T19:14:59.489Z,100.00
2023-02-13T19:17:26.857Z,100.00
2023-02-13T19:19:55.770Z,100.00
2023-02-13T19:22:23.153Z,100.00
2023-02-13T19:24:50.527Z,100.00
2023-02-13T19:27:17.974Z,100.00
2023-02-13T19:29:46.701Z,100.00
2023-02-13T19:32:14.111Z,100.00
2023-02-13T19:34:42.318Z,100.00
2023-02-13T19:37:09.727Z,100.00
2023-02-13T19:39:37.263Z,100.00
2023-02-13T19:42:04.921Z,100.00
2023-02-13T19:44:32.226Z,100.00
2023-02-13T19:47:01.046Z,100.00
2023-02-13T19:49:28.458Z,100.00
2023-02-13T19:51:55.743Z,100.00
2023-02-13T19:54:23.104Z,100.00
2023-02-13T19:56:50.616Z,100.00
2023-02-13T19:59:17.970Z,100.00
2023-02-13T20:01:45.749Z,100.00
2023-02-13T20:04:13.302Z,100.00
2023-02-13T20:06:40.888Z,100.00
2023-02-13T20:09:12.884Z,100.00
2023-02-13T20:11:41.621Z,100.00
2023-02-13T20:14:14.704Z,100.00
2023-02-13T20:16:45.639Z,100.00
2023-02-13T20:19:13.825Z,100.00
2023-02-13T20:21:42.481Z,100.00
2023-02-13T20:24:10.694Z,100.00
2023-02-13T20:26:39.205Z,100.00
2023-02-13T20:29:07.209Z,100.00
2023-02-13T20:31:35.568Z,100.00
2023-02-13T20:34:06.114Z,100.00
2023-02-13T20:36:34.137Z,100.00
2023-02-13T20:39:05.354Z,100.00
2023-02-13T20:41:36.275Z,100.00
2023-02-13T20:44:09.031Z,100.00
2023-02-13T20:46:39.429Z,100.00
2023-02-13T20:49:07.174Z,100.00
2023-02-13T20:51:35.155Z,100.00
2023-02-13T20:54:03.638Z,100.00
2023-02-13T20:56:31.485Z,100.00
2023-02-13T20:59:00.656Z,100.00
2023-02-13T21:01:34.196Z,100.00
2023-02-13T21:04:02.060Z,100.00
2023-02-13T21:06:34.195Z,100.00
2023-02-13T21:09:03.209Z,100.00
2023-02-13T21:11:31.542Z,100.00
2023-02-13T21:13:59.279Z,100.00
2023-02-13T21:16:30.849Z,100.00
2023-02-13T21:19:01.638Z,100.00
2023-02-13T21:21:31.644Z,100.00
2023-02-13T21:24:09.468Z,100.00
2023-02-13T21:26:37.146Z,100.00
2023-02-13T21:29:06.092Z,100.00
2023-02-13T21:31:38.427Z,100.00
2023-02-13T21:34:10.193Z,100.00
2023-02-13T21:36:39.113Z,100.00
2023-02-13T21:39:08.794Z,100.00
2023-02-13T21:41:38.766Z,100.00
2023-02-13T21:44:06.108Z,100.00
2023-02-13T21:46:34.516Z,100.00
2023-02-13T21:49:04.891Z,100.00
2023-02-13T21:51:34.586Z,100.00
2023-02-13T21:54:03.829Z,100.00
2023-02-13T21:56:36.111Z,100.00
2023-02-13T21:59:04.422Z,100.00
2023-02-13T22:01:46.639Z,100.00
2023-02-13T22:04:14.863Z,100.00
2023-02-13T22:06:42.254Z,100.00
2023-02-13T22:09:14.111Z,100.00
2023-02-13T22:11:42.442Z,100.00
2023-02-13T22:14:17.075Z,100.00
2023-02-13T22:16:45.719Z,100.00
2023-02-13T22:19:15.760Z,100.00
2023-02-13T22:21:43.505Z,100.00
2023-02-13T22:24:11.386Z,100.00
2023-02-13T22:26:41.700Z,100.00
2023-02-13T22:29:13.447Z,100.00
2023-02-13T22:31:41.195Z,100.00
2023-02-13T22:34:11.312Z,100.00
2023-02-13T22:36:39.034Z,100.00
2023-02-13T22:39:08.937Z,100.00
2023-02-13T22:41:36.546Z,100.00
2023-02-13T22:44:04.230Z,100.00
2023-02-13T22:46:33.321Z,100.00
2023-02-13T22:49:01.127Z,100.00
2023-02-13T22:51:35.604Z,100.00
2023-02-13T22:54:04.630Z,100.00
2023-02-13T22:56:32.529Z,100.00
2023-02-13T22:59:00.528Z,100.00
2023-02-13T23:01:29.529Z,100.00
2023-02-13T23:03:57.541Z,100.00
2023-02-13T23:06:25.208Z,100.00
2023-02-13T23:08:53.639Z,100.00
2023-02-13T23:11:43.620Z,100.00
2023-02-13T23:14:11.747Z,100.00
2023-02-13T23:16:59.293Z,100.00
2023-02-13T23:19:27.693Z,100.00
2023-02-13T23:21:55.092Z,100.00
2023-02-13T23:24:22.458Z,100.00
2023-02-13T23:26:49.702Z,100.00
2023-02-13T23:29:16.956Z,100.00
2023-02-13T23:31:45.458Z,100.00
2023-02-13T23:34:12.746Z,100.00
2023-02-13T23:36:40.043Z,100.00
2023-02-13T23:39:07.223Z,100.00
2023-02-13T23:41:34.482Z,100.00
2023-02-13T23:44:01.756Z,100.00
2023-02-13T23:46:29.197Z,100.00
2023-02-13T23:48:56.583Z,100.00
2023-02-13T23:51:25.629Z,100.00
2023-02-13T23:53:56.227Z,100.00
2023-02-13T23:56:25.390Z,100.00
2023-02-13T23:58:53.452Z,100.00
